Dades meteomassalio
Diari Summary for Juliol 1, 2017 Units:  Metric    English   Both
« Previous Day
Next Day »
Diari Semanal Mensual Anual Personalitzat
  Maxima: Minima: Mijana:
Temperatura: -17.8 °C -10.1 °C -7.7 °C
Rosada: -17.8 °C -14.1 °C -13.2 °C
Humitat: Humidity % 42 % 53 %
Velocitat del vent: 0 km/h 0 km/h 49.7 km/h
Racha vent: 0 km/h - -
Vent:- - NW
Pressio: 0 hPa 34533.8 hPa -
Pluja: 0 mm    
Historical Graphs
 
 
Tabular Data for Juliol 1, 2017
Time Temperature Dew Point Pressure Wind Wind Speed Wind Gust Humidity Rainfall Rate (Hourly) solar Conditions
-17.8 °C -17.8 °C 0 hPa Calm     Humidity % 0 mm SolarRadiationWatts/m^2 W/m2 Conditions
00:02 -8.5 °C -13.1 °C 34533.8 hPa NW 47.6 km/h 47.6 km/h 58 % 0 mm 0.0 W/m2 CLR
00:07 -8.4 °C -13.1 °C 34533.8 hPa NW 62.6 km/h 62.6 km/h 58 % 0 mm 0.0 W/m2 CLR
00:12 -8.4 °C -13.2 °C 34533.8 hPa NW 50.7 km/h 50.7 km/h 57 % 0 mm 0.0 W/m2 CLR
00:17 -8.4 °C -13.2 °C 34533.8 hPa NW 23.8 km/h 23.8 km/h 57 % 0 mm 0.0 W/m2 CLR
00:22 -8.5 °C -13.2 °C 34533.8 hPa NNW 32.8 km/h 32.8 km/h 57 % 0 mm 0.0 W/m2 CLR
00:27 -8.5 °C -13.3 °C 34533.8 hPa NW 46.7 km/h 46.7 km/h 57 % 0 mm 0.0 W/m2 CLR
00:32 -8.5 °C -13.3 °C 34533.8 hPa WNW 29.8 km/h 29.8 km/h 57 % 0 mm 0.0 W/m2 CLR
00:37 -8.6 °C -13.3 °C 34533.8 hPa NW 44.7 km/h 44.7 km/h 57 % 0 mm 0.0 W/m2 CLR
00:42 -8.6 °C -13.4 °C 34533.8 hPa NW 47.6 km/h 47.6 km/h 57 % 0 mm 0.0 W/m2 CLR
00:47 -8.6 °C -13.4 °C 34544 hPa NW 53.6 km/h 53.6 km/h 57 % 0 mm 0.0 W/m2 CLR
00:52 -8.7 °C -13.4 °C 34544 hPa NW 50.7 km/h 50.7 km/h 57 % 0 mm 0.0 W/m2 CLR
00:53 -8.7 °C -13.4 °C 34544 hPa NW 50.7 km/h 50.7 km/h 57 % 0 mm 0.0 W/m2 CLR
00:58 -8.7 °C -13.4 °C 34544 hPa NW 29.8 km/h 29.8 km/h 57 % 0 mm 0.0 W/m2 CLR
01:03 -8.7 °C -13.4 °C 34554.1 hPa WNW 32.8 km/h 32.8 km/h 57 % 0 mm 0.0 W/m2 CLR
01:08 -8.7 °C -13.4 °C 34554.1 hPa NW 29.8 km/h 29.8 km/h 57 % 0 mm 0.0 W/m2 CLR
01:13 -8.7 °C -13.4 °C 34554.1 hPa NW 50.7 km/h 50.7 km/h 57 % 0 mm 0.0 W/m2 CLR
01:18 -8.7 °C -13.4 °C 34554.1 hPa NNW 38.8 km/h 38.8 km/h 57 % 0 mm 0.0 W/m2 CLR
01:23 -8.7 °C -13.3 °C 34544 hPa NW 32.8 km/h 32.8 km/h 58 % 0 mm 0.0 W/m2 CLR
01:28 -8.7 °C -13.3 °C 34554.1 hPa NW 41.7 km/h 41.7 km/h 58 % 0 mm 0.0 W/m2 CLR
01:33 -8.7 °C -13.3 °C 34544 hPa WNW 29.8 km/h 29.8 km/h 58 % 0 mm 0.0 W/m2 CLR
01:38 -8.7 °C -13.3 °C 34554.1 hPa NNW 32.8 km/h 32.8 km/h 58 % 0 mm 0.0 W/m2 CLR
01:43 -8.7 °C -13.3 °C 34554.1 hPa NNW 44.7 km/h 44.7 km/h 58 % 0 mm 0.0 W/m2 CLR
01:48 -8.7 °C -13.3 °C 34554.1 hPa NNW 44.7 km/h 44.7 km/h 58 % 0 mm 0.0 W/m2 CLR
01:53 -8.7 °C -13.5 °C 34554.1 hPa NW 41.7 km/h 41.7 km/h 57 % 0 mm 0.0 W/m2 CLR
01:54 -8.7 °C -13.5 °C 34544 hPa NW 44.7 km/h 44.7 km/h 57 % 0 mm 0.0 W/m2 CLR
01:59 -8.8 °C -13.5 °C 34544 hPa NW 41.7 km/h 41.7 km/h 57 % 0 mm 0.0 W/m2 CLR
02:04 -8.8 °C -13.6 °C 34544 hPa North 56.6 km/h 56.6 km/h 57 % 0 mm 0.0 W/m2 CLR
02:09 -8.8 °C -13.6 °C 34544 hPa NW 44.7 km/h 44.7 km/h 57 % 0 mm 0.0 W/m2 CLR
02:14 -8.9 °C -13.6 °C 34544 hPa NW 47.6 km/h 47.6 km/h 57 % 0 mm 0.0 W/m2 CLR
02:19 -8.9 °C -13.5 °C 34544 hPa NW 41.7 km/h 41.7 km/h 58 % 0 mm 0.0 W/m2 CLR
02:24 -8.9 °C -13.7 °C 34544 hPa NNW 47.6 km/h 47.6 km/h 57 % 0 mm 0.0 W/m2 CLR
02:29 -9 °C -13.7 °C 34544 hPa NW 38.8 km/h 38.8 km/h 57 % 0 mm 0.0 W/m2 CLR
02:34 -9 °C -13.7 °C 34544 hPa NNW 29.8 km/h 29.8 km/h 57 % 0 mm 0.0 W/m2 CLR
02:39 -9.1 °C -13.7 °C 34544 hPa NNW 32.8 km/h 32.8 km/h 58 % 0 mm 0.0 W/m2 CLR
02:44 -9.1 °C -13.7 °C 34544 hPa NW 32.8 km/h 32.8 km/h 58 % 0 mm 0.0 W/m2 CLR
02:49 -9.1 °C -13.6 °C 34544 hPa NNW 50.7 km/h 50.7 km/h 59 % 0 mm 0.0 W/m2 CLR
02:54 -9.1 °C -13.6 °C 34544 hPa WNW 32.8 km/h 32.8 km/h 59 % 0 mm 0.0 W/m2 CLR
02:59 -9.2 °C -13.6 °C 34554.1 hPa NW 41.7 km/h 41.7 km/h 59 % 0 mm 0.0 W/m2 CLR
03:04 -9.2 °C -13.6 °C 34554.1 hPa NW 32.8 km/h 32.8 km/h 59 % 0 mm 0.0 W/m2 CLR
03:10 -9.2 °C -13.6 °C 34554.1 hPa NW 32.8 km/h 32.8 km/h 59 % 0 mm 0.0 W/m2 CLR
03:15 -9.2 °C -13.5 °C 34544 hPa WNW 26.9 km/h 26.9 km/h 60 % 0 mm 0.0 W/m2 CLR
03:20 -9.2 °C -13.4 °C 34544 hPa WNW 29.8 km/h 29.8 km/h 61 % 0 mm 0.0 W/m2 CLR
03:25 -9.2 °C -13.5 °C 34544 hPa West 50.7 km/h 50.7 km/h 60 % 0 mm 0.0 W/m2 CLR
03:30 -9.2 °C -13.5 °C 34544 hPa WNW 50.7 km/h 50.7 km/h 60 % 0 mm 0.0 W/m2 CLR
03:35 -9.3 °C -13.6 °C 34554.1 hPa WNW 38.8 km/h 38.8 km/h 60 % 0 mm 0.0 W/m2 CLR
03:40 -9.3 °C -13.6 °C 34554.1 hPa West 41.7 km/h 41.7 km/h 60 % 0 mm 0.0 W/m2 CLR
03:45 -9.3 °C -13.7 °C 34544 hPa NW 51.8 km/h 51.8 km/h 59 % 0 mm 0.0 W/m2 CLR
03:50 -9.3 °C -13.7 °C 34554.1 hPa NW 35.7 km/h 35.7 km/h 59 % 0 mm 0.0 W/m2 CLR
03:55 -9.3 °C -13.8 °C 34554.1 hPa WNW 53.6 km/h 53.6 km/h 58 % 0 mm 0.0 W/m2 CLR
04:00 -9.3 °C -13.9 °C 34554.1 hPa NW 50.7 km/h 50.7 km/h 58 % 0 mm 0.0 W/m2 CLR
04:05 -9.4 °C -13.8 °C 34544 hPa NNW 29.8 km/h 29.8 km/h 59 % 0 mm 0.0 W/m2 CLR
04:10 -9.4 °C -13.8 °C 34544 hPa WNW 41.7 km/h 41.7 km/h 59 % 0 mm 0.0 W/m2 CLR
04:15 -9.4 °C -13.8 °C 34544 hPa NW 47.6 km/h 47.6 km/h 59 % 0 mm 0.0 W/m2 CLR
04:20 -9.4 °C -13.8 °C 34544 hPa West 41.4 km/h 41.4 km/h 59 % 0 mm 0.0 W/m2 CLR
04:25 -9.4 °C -13.8 °C 34544 hPa NW 50.7 km/h 50.7 km/h 59 % 0 mm 0.0 W/m2 CLR
04:30 -9.4 °C -13.8 °C 34544 hPa WNW 38.8 km/h 38.8 km/h 59 % 0 mm 0.0 W/m2 CLR
04:35 -9.5 °C -13.9 °C 34544 hPa NW 50.7 km/h 50.7 km/h 59 % 0 mm 0.0 W/m2 CLR
04:40 -9.5 °C -13.9 °C 34554.1 hPa West 41.7 km/h 41.7 km/h 59 % 0 mm 0.0 W/m2 CLR
04:45 -9.6 °C -13.9 °C 34554.1 hPa West 47.6 km/h 47.6 km/h 59 % 0 mm 0.0 W/m2 CLR
04:50 -9.6 °C -13.9 °C 34554.1 hPa WNW 50.7 km/h 50.7 km/h 59 % 0 mm 0.0 W/m2 CLR
04:55 -9.6 °C -14.1 °C 34554.1 hPa WNW 53.6 km/h 53.6 km/h 58 % 0 mm 0.0 W/m2 CLR
05:00 -9.6 °C -14.1 °C 34554.1 hPa WNW 59.5 km/h 59.5 km/h 58 % 0 mm 0.0 W/m2 CLR
05:05 -9.6 °C -14.1 °C 34554.1 hPa West 50.7 km/h 50.7 km/h 59 % 0 mm 0.0 W/m2 CLR
05:10 -9.7 °C -14.1 °C 34554.1 hPa WNW 41.7 km/h 41.7 km/h 59 % 0 mm 0.0 W/m2 CLR
05:15 -9.7 °C -14.1 °C 34554.1 hPa WNW 62.6 km/h 62.6 km/h 59 % 0 mm 0.0 W/m2 CLR
05:20 -9.7 °C -13.9 °C 34554.1 hPa WNW 44.7 km/h 44.7 km/h 60 % 0 mm 0.0 W/m2 CLR
05:25 -9.7 °C -14 °C 34554.1 hPa WNW 35.7 km/h 35.7 km/h 60 % 0 mm 0.0 W/m2 CLR
05:30 -9.7 °C -14 °C 34554.1 hPa NW 41.7 km/h 41.7 km/h 60 % 0 mm 0.0 W/m2 CLR
05:35 -9.7 °C -14 °C 34554.1 hPa West 32.8 km/h 32.8 km/h 60 % 0 mm 0.0 W/m2 CLR
05:40 -9.7 °C -14 °C 34554.1 hPa WNW 35.7 km/h 35.7 km/h 60 % 0 mm 0.0 W/m2 CLR
05:45 -9.7 °C -13.9 °C 34567.7 hPa West 38.8 km/h 38.8 km/h 60 % 0 mm 0.0 W/m2 CLR
05:50 -9.7 °C -14 °C 34567.7 hPa WNW 51.8 km/h 51.8 km/h 60 % 0 mm 0.0 W/m2 CLR
05:55 -9.7 °C -14 °C 34567.7 hPa NW 51.8 km/h 51.8 km/h 60 % 0 mm 0.0 W/m2 CLR
06:00 -9.7 °C -14 °C 34567.7 hPa WNW 35.7 km/h 35.7 km/h 60 % 0 mm 0.0 W/m2 CLR
06:05 -9.8 °C -14 °C 34567.7 hPa NW 38.8 km/h 38.8 km/h 60 % 0 mm 0.0 W/m2 CLR
06:10 -9.8 °C -14 °C 34567.7 hPa West 47.6 km/h 47.6 km/h 60 % 0 mm 0.0 W/m2 CLR
06:15 -9.8 °C -14.1 °C 34567.7 hPa WNW 44.7 km/h 44.7 km/h 60 % 0 mm 0.0 W/m2 CLR
06:20 -9.8 °C -13.9 °C 34577.8 hPa West 50.7 km/h 50.7 km/h 61 % 0 mm 0.0 W/m2 CLR
06:25 -9.8 °C -13.9 °C 34567.7 hPa NW 50.7 km/h 50.7 km/h 61 % 0 mm 0.0 W/m2 OVC
06:30 -9.8 °C -14 °C 34577.8 hPa WNW 44.7 km/h 44.7 km/h 61 % 0 mm 0.0 W/m2 OVC
06:35 -9.9 °C -13.9 °C 34577.8 hPa WNW 41.7 km/h 41.7 km/h 62 % 0 mm 0.0 W/m2 OVC
06:40 -9.9 °C -13.9 °C 34577.8 hPa NW 44.7 km/h 44.7 km/h 62 % 0 mm 9.0 W/m2 BKN
06:45 -10 °C -14 °C 34577.8 hPa WNW 29.8 km/h 29.8 km/h 62 % 0 mm 11.0 W/m2 BKN
06:50 -10.1 °C -14 °C 34577.8 hPa WNW 33.6 km/h 33.6 km/h 62 % 0 mm 14.0 W/m2 BKN
06:55 -10.1 °C -13.9 °C 34591.4 hPa WNW 31.1 km/h 31.1 km/h 63 % 0 mm 16.0 W/m2 BKN
07:00 -10.1 °C -13.9 °C 34591.4 hPa West 32.8 km/h 32.8 km/h 63 % 0 mm 16.0 W/m2 BKN
07:05 -10.1 °C -13.9 °C 34591.4 hPa WNW 38.8 km/h 38.8 km/h 63 % 0 mm 18.0 W/m2 BKN
07:10 -10.1 °C -13.9 °C 34591.4 hPa WNW 38.8 km/h 38.8 km/h 63 % 0 mm 23.0 W/m2 BKN
07:15 -10.1 °C -13.9 °C 34591.4 hPa WNW 41.7 km/h 41.7 km/h 63 % 0 mm 40.0 W/m2 BKN
07:20 -10.1 °C -13.9 °C 34591.4 hPa WNW 53.6 km/h 53.6 km/h 63 % 0 mm 53.0 W/m2 SCT
07:25 -9.9 °C -13.9 °C 34591.4 hPa WNW 32.8 km/h 32.8 km/h 62 % 0 mm 65.0 W/m2 SCT
07:30 -9.9 °C -13.9 °C 34591.4 hPa WNW 50.7 km/h 50.7 km/h 62 % 0 mm 77.0 W/m2 FEW
07:35 -9.8 °C -13.8 °C 34591.4 hPa WNW 56.6 km/h 56.6 km/h 62 % 0 mm 91.0 W/m2 FEW
07:40 -9.8 °C -13.9 °C 34591.4 hPa WNW 56.6 km/h 56.6 km/h 61 % 0 mm 105.0 W/m2 CLR
07:45 -9.8 °C -13.9 °C 34591.4 hPa West 46.7 km/h 46.7 km/h 61 % 0 mm 123.0 W/m2 CLR
07:50 -9.7 °C -13.8 °C 34591.4 hPa West 35.7 km/h 35.7 km/h 61 % 0 mm 139.0 W/m2 CLR
07:55 -9.7 °C -13.8 °C 34591.4 hPa NW 56.6 km/h 56.6 km/h 61 % 0 mm 155.0 W/m2 CLR
08:00 -9.6 °C -13.7 °C 34591.4 hPa NNW 49.2 km/h 49.2 km/h 61 % 0 mm 172.0 W/m2 CLR
08:05 -9.6 °C -13.8 °C 34591.4 hPa NW 57 km/h 57 km/h 60 % 0 mm 193.0 W/m2 CLR
08:10 -9.5 °C -13.8 °C 34591.4 hPa NW 47.6 km/h 47.6 km/h 60 % 0 mm 209.0 W/m2 CLR
08:15 -9.4 °C -13.8 °C 34591.4 hPa NW 54.4 km/h 54.4 km/h 59 % 0 mm 223.0 W/m2 CLR
08:20 -9.4 °C -13.8 °C 34591.4 hPa NW 65.5 km/h 65.5 km/h 59 % 0 mm 234.0 W/m2 CLR
08:25 -9.3 °C -13.7 °C 34591.4 hPa NNW 56.6 km/h 56.6 km/h 59 % 0 mm 258.0 W/m2 CLR
08:30 -9.3 °C -13.7 °C 34601.5 hPa WNW 56.6 km/h 56.6 km/h 59 % 0 mm 274.0 W/m2 CLR
08:35 -9.3 °C -13.7 °C 34601.5 hPa NW 65.5 km/h 65.5 km/h 59 % 0 mm 287.0 W/m2 CLR
08:40 -9.2 °C -13.7 °C 34601.5 hPa NNW 59.5 km/h 59.5 km/h 59 % 0 mm 302.0 W/m2 CLR
08:45 -9.2 °C -13.6 °C 34601.5 hPa NNW 50.7 km/h 50.7 km/h 59 % 0 mm 318.0 W/m2 CLR
08:50 -9.1 °C -13.7 °C 34601.5 hPa WNW 71.5 km/h 71.5 km/h 58 % 0 mm 338.0 W/m2 CLR
08:55 -9.1 °C -13.7 °C 34601.5 hPa WNW 50.7 km/h 50.7 km/h 58 % 0 mm 353.0 W/m2 CLR
09:00 -9 °C -13.6 °C 34601.5 hPa NNW 62.6 km/h 62.6 km/h 58 % 0 mm 369.0 W/m2 CLR
09:05 -8.9 °C -13.5 °C 34601.5 hPa WNW 47.6 km/h 47.6 km/h 58 % 0 mm 392.0 W/m2 CLR
09:10 -8.9 °C -13.6 °C 34601.5 hPa NNW 46.7 km/h 46.7 km/h 57 % 0 mm 406.0 W/m2 CLR
09:15 -8.9 °C -13.6 °C 34601.5 hPa NW 71.5 km/h 71.5 km/h 57 % 0 mm 406.0 W/m2 CLR
09:20 -8.9 °C -13.7 °C 34611.7 hPa NNW 50.7 km/h 50.7 km/h 57 % 0 mm 457.0 W/m2 CLR
09:25 -8.8 °C -13.5 °C 34611.7 hPa WNW 41.7 km/h 41.7 km/h 57 % 0 mm 450.0 W/m2 CLR
09:30 -8.7 °C -13.7 °C 34611.7 hPa WNW 59.5 km/h 59.5 km/h 55 % 0 mm 464.0 W/m2 CLR
09:35 -8.6 °C -13.6 °C 34611.7 hPa NW 59.5 km/h 59.5 km/h 55 % 0 mm 475.0 W/m2 CLR
09:40 -8.5 °C -13.7 °C 34601.5 hPa NW 57 km/h 57 km/h 54 % 0 mm 494.0 W/m2 CLR
09:45 -8.4 °C -13.7 °C 34601.5 hPa NW 62.6 km/h 62.6 km/h 54 % 0 mm 506.0 W/m2 CLR
09:50 -8.3 °C -13.7 °C 34601.5 hPa West 50.7 km/h 50.7 km/h 53 % 0 mm 520.0 W/m2 CLR
09:55 -8.1 °C -13.7 °C 34601.5 hPa WNW 50.7 km/h 50.7 km/h 52 % 0 mm 534.0 W/m2 CLR
10:01 -8.1 °C -13.8 °C 34601.5 hPa NW 56.6 km/h 56.6 km/h 51 % 0 mm 550.0 W/m2 CLR
10:06 -8.1 °C -13.6 °C 34601.5 hPa WNW 59.5 km/h 59.5 km/h 52 % 0 mm 584.0 W/m2 CLR
10:11 -8.1 °C -13.6 °C 34601.5 hPa WNW 59.5 km/h 59.5 km/h 52 % 0 mm 582.0 W/m2 CLR
10:16 -8 °C -13.6 °C 34601.5 hPa WNW 71.5 km/h 71.5 km/h 52 % 0 mm 596.0 W/m2 CLR
10:21 -7.9 °C -13.4 °C 34601.5 hPa WNW 47.6 km/h 47.6 km/h 52 % 0 mm 629.0 W/m2 CLR
10:26 -7.7 °C -13.4 °C 34601.5 hPa WNW 59.5 km/h 59.5 km/h 51 % 0 mm 636.0 W/m2 CLR
10:31 -7.8 °C -13.4 °C 34601.5 hPa NW 65.5 km/h 65.5 km/h 52 % 0 mm 649.0 W/m2 CLR
10:36 -7.7 °C -13.3 °C 34601.5 hPa NW 51.8 km/h 54.4 km/h 52 % 0 mm 745.0 W/m2 CLR
10:41 -7.7 °C -13.4 °C 34611.7 hPa NNW 50.7 km/h 50.7 km/h 51 % 0 mm 729.0 W/m2 CLR
10:46 -7.7 °C -13.4 °C 34601.5 hPa WNW 53.6 km/h 53.6 km/h 51 % 0 mm 708.0 W/m2 CLR
10:51 -7.6 °C -13.3 °C 34601.5 hPa NNW 62.6 km/h 62.6 km/h 51 % 0 mm 165.0 W/m2 CLR
10:56 -7.7 °C -13.3 °C 34601.5 hPa WNW 50.7 km/h 50.7 km/h 52 % 0 mm 810.0 W/m2 CLR
11:01 -7.8 °C -13.4 °C 34611.7 hPa NNW 65.5 km/h 65.5 km/h 52 % 0 mm 185.0 W/m2 CLR
11:06 -7.9 °C -13.3 °C 34611.7 hPa WNW 53.6 km/h 53.6 km/h 53 % 0 mm 195.0 W/m2 CLR
11:11 -7.8 °C -13.2 °C 34611.7 hPa WNW 68.6 km/h 68.6 km/h 53 % 0 mm 265.0 W/m2 CLR
11:12 -7.8 °C -13.2 °C 34611.7 hPa NNW 53.6 km/h 53.6 km/h 53 % 0 mm 269.0 W/m2 CLR
11:17 -7.9 °C -13.3 °C 34611.7 hPa NNW 29.8 km/h 29.8 km/h 53 % 0 mm 257.0 W/m2 CLR
11:22 -7.8 °C -13.2 °C 34611.7 hPa NNW 50.7 km/h 50.7 km/h 53 % 0 mm 295.0 W/m2 CLR
11:27 -7.8 °C -13.2 °C 34611.7 hPa NNW 47.6 km/h 47.6 km/h 53 % 0 mm 390.0 W/m2 CLR
11:32 -7.6 °C -13.2 °C 34611.7 hPa North 59.5 km/h 59.5 km/h 52 % 0 mm 424.0 W/m2 CLR
11:37 -7.4 °C -13.1 °C 34611.7 hPa NNW 62.6 km/h 62.6 km/h 52 % 0 mm 891.0 W/m2 CLR
11:42 -7.2 °C -13.2 °C 34601.5 hPa NW 59.5 km/h 59.5 km/h 50 % 0 mm 1037.0 W/m2 CLR
11:47 -7.2 °C -13.2 °C 34601.5 hPa NW 68.6 km/h 68.6 km/h 50 % 0 mm 1037.0 W/m2 CLR
11:52 -7.3 °C -13.3 °C 34601.5 hPa WNW 53.6 km/h 53.6 km/h 50 % 0 mm 301.0 W/m2 CLR
11:57 -7.2 °C -13.3 °C 34601.5 hPa NW 77.4 km/h 77.4 km/h 49 % 0 mm 246.0 W/m2 CLR
12:02 -7.3 °C -13.2 °C 34591.4 hPa NNW 53.6 km/h 53.6 km/h 50 % 0 mm 872.0 W/m2 CLR
12:07 -7.1 °C -13.2 °C 34591.4 hPa NW 64.7 km/h 64.7 km/h 49 % 0 mm 898.0 W/m2 CLR
12:12 -6.9 °C -13.2 °C 34591.4 hPa NNW 68.6 km/h 68.6 km/h 48 % 0 mm 932.0 W/m2 CLR
12:13 -7 °C -13.2 °C 34591.4 hPa NW 68.6 km/h 68.6 km/h 48 % 0 mm 932.0 W/m2 CLR
12:18 -6.8 °C -13.1 °C 34591.4 hPa WNW 68.6 km/h 68.6 km/h 48 % 0 mm 884.0 W/m2 CLR
12:23 -6.8 °C -12.9 °C 34591.4 hPa NW 59.5 km/h 59.5 km/h 49 % 0 mm 895.0 W/m2 CLR
12:28 -6.6 °C -13.1 °C 34591.4 hPa WNW 59.5 km/h 59.5 km/h 47 % 0 mm 891.0 W/m2 CLR
12:33 -6.7 °C -13.2 °C 34591.4 hPa NW 77.4 km/h 77.4 km/h 47 % 0 mm 900.0 W/m2 CLR
12:38 -6.8 °C -13.2 °C 34591.4 hPa NW 53.6 km/h 53.6 km/h 48 % 0 mm 935.0 W/m2 CLR
12:43 -6.6 °C -12.9 °C 34591.4 hPa NW 50.7 km/h 50.7 km/h 48 % 0 mm 946.0 W/m2 CLR
12:48 -6.4 °C -12.9 °C 34601.5 hPa NW 50.7 km/h 50.7 km/h 47 % 0 mm 1067.0 W/m2 CLR
12:53 -6.7 °C -13.2 °C 34601.5 hPa NNW 68.6 km/h 68.6 km/h 47 % 0 mm 185.0 W/m2 CLR
12:58 -6.8 °C -13.1 °C 34601.5 hPa NW 32.8 km/h 32.8 km/h 48 % 0 mm 942.0 W/m2 CLR
13:03 -6.5 °C -13 °C 34591.4 hPa NW 50.7 km/h 50.7 km/h 47 % 0 mm 1000.0 W/m2 CLR
13:08 -6.4 °C -13.1 °C 34591.4 hPa NNW 56.6 km/h 56.6 km/h 46 % 0 mm 1009.0 W/m2 CLR
13:13 -6.3 °C -13 °C 34601.5 hPa WNW 65.5 km/h 65.5 km/h 46 % 0 mm 302.0 W/m2 CLR
13:18 -6.5 °C -12.8 °C 34591.4 hPa NW 46.7 km/h 46.7 km/h 48 % 0 mm 1042.0 W/m2 CLR
13:23 -6.4 °C -12.9 °C 34601.5 hPa NNW 65.5 km/h 65.5 km/h 47 % 0 mm 1179.0 W/m2 CLR
13:28 -6.2 °C -12.9 °C 34591.4 hPa NW 47.6 km/h 47.6 km/h 46 % 0 mm 1172.0 W/m2 CLR
13:33 -6.2 °C -12.9 °C 34601.5 hPa NNW 47.6 km/h 47.6 km/h 46 % 0 mm 1243.0 W/m2 CLR
13:38 -6.2 °C -12.9 °C 34601.5 hPa North 53.6 km/h 53.6 km/h 46 % 0 mm 1136.0 W/m2 CLR
13:43 -6.2 °C -12.7 °C 34601.5 hPa North 44.7 km/h 44.7 km/h 47 % 0 mm 336.0 W/m2 CLR
13:44 -6.2 °C -12.7 °C 34591.4 hPa NNW 41.7 km/h 41.7 km/h 47 % 0 mm 336.0 W/m2 CLR
13:49 -6.2 °C -12.7 °C 34601.5 hPa NNW 65.5 km/h 65.5 km/h 47 % 0 mm 1176.0 W/m2 CLR
13:54 -6 °C -12.7 °C 34591.4 hPa WNW 74.5 km/h 74.5 km/h 46 % 0 mm 1222.0 W/m2 CLR
13:59 -5.9 °C -12.7 °C 34591.4 hPa NNW 69.8 km/h 69.8 km/h 46 % 0 mm 1104.0 W/m2 CLR
14:04 -5.7 °C -12.7 °C 34591.4 hPa NW 53.6 km/h 53.6 km/h 45 % 0 mm 1179.0 W/m2 CLR
14:09 -5.7 °C -12.8 °C 34591.4 hPa NW 69.8 km/h 69.8 km/h 44 % 0 mm 279.0 W/m2 CLR
14:14 -5.9 °C -12.9 °C 34591.4 hPa NW 50.7 km/h 50.7 km/h 45 % 0 mm 267.0 W/m2 CLR
14:19 -6.1 °C -12.7 °C 34591.4 hPa WNW 68.6 km/h 68.6 km/h 46 % 0 mm 1028.0 W/m2 CLR
14:24 -5.9 °C -12.8 °C 34591.4 hPa NW 68.6 km/h 68.6 km/h 45 % 0 mm 1042.0 W/m2 CLR
14:29 -5.7 °C -12.7 °C 34591.4 hPa NW 56.6 km/h 56.6 km/h 45 % 0 mm 1062.0 W/m2 CLR
14:34 -5.7 °C -12.7 °C 34591.4 hPa WNW 41.7 km/h 41.7 km/h 45 % 0 mm 1085.0 W/m2 CLR
14:39 -5.5 °C -12.6 °C 34591.4 hPa NW 51.8 km/h 51.8 km/h 44 % 0 mm 1078.0 W/m2 CLR
14:44 -5.7 °C -12.6 °C 34577.8 hPa NW 41.7 km/h 41.7 km/h 45 % 0 mm 1053.0 W/m2 CLR
14:49 -5.4 °C -12.7 °C 34591.4 hPa NNW 41.7 km/h 41.7 km/h 43 % 0 mm 1020.0 W/m2 CLR
14:54 -5.4 °C -12.7 °C 34577.8 hPa NW 65.5 km/h 65.5 km/h 43 % 0 mm 1048.0 W/m2 CLR
14:59 -5.6 °C -12.7 °C 34591.4 hPa NNW 72.6 km/h 72.6 km/h 44 % 0 mm 1035.0 W/m2 CLR
15:04 -5.6 °C -12.7 °C 34591.4 hPa NNW 65.5 km/h 65.5 km/h 44 % 0 mm 1011.0 W/m2 CLR
15:09 -5.6 °C -12.7 °C 34591.4 hPa NW 71.5 km/h 71.5 km/h 44 % 0 mm 1020.0 W/m2 CLR
15:14 -5.6 °C -12.7 °C 34591.4 hPa NNW 83.4 km/h 83.4 km/h 44 % 0 mm 1130.0 W/m2 CLR
15:19 -5.6 °C -12.6 °C 34577.8 hPa NW 56.6 km/h 56.6 km/h 45 % 0 mm 1044.0 W/m2 CLR
15:24 -5.3 °C -12.4 °C 34591.4 hPa WNW 44.7 km/h 44.7 km/h 44 % 0 mm 1049.0 W/m2 CLR
15:29 -5.3 °C -12.4 °C 34591.4 hPa NW 49.2 km/h 49.2 km/h 44 % 0 mm 1049.0 W/m2 CLR
15:34 -5.4 °C -12.6 °C 34591.4 hPa North 62.6 km/h 62.6 km/h 44 % 0 mm 1011.0 W/m2 CLR
15:39 -5.4 °C -12.7 °C 34591.4 hPa North 59.5 km/h 59.5 km/h 43 % 0 mm 979.0 W/m2 CLR
15:44 -5.6 °C -12.6 °C 34591.4 hPa NNW 50.7 km/h 50.7 km/h 45 % 0 mm 918.0 W/m2 CLR
15:50 -5.5 °C -12.4 °C 34591.4 hPa WNW 59.5 km/h 59.5 km/h 45 % 0 mm 893.0 W/m2 CLR
15:55 -5.4 °C -12.6 °C 34591.4 hPa North 59.5 km/h 59.5 km/h 44 % 0 mm 339.0 W/m2 CLR
16:00 -5.5 °C -12.4 °C 34591.4 hPa NNW 50.7 km/h 50.7 km/h 45 % 0 mm 919.0 W/m2 CLR
16:05 -5.4 °C -12.6 °C 34591.4 hPa NW 68.6 km/h 68.6 km/h 44 % 0 mm 870.0 W/m2 CLR
16:10 -5.4 °C -12.6 °C 34591.4 hPa NNW 65.5 km/h 65.5 km/h 44 % 0 mm 891.0 W/m2 CLR
16:15 -5.4 °C -12.5 °C 34591.4 hPa WNW 56.6 km/h 56.6 km/h 44 % 0 mm 896.0 W/m2 CLR
16:20 -5.3 °C -12.4 °C 34577.8 hPa NNW 62.6 km/h 62.6 km/h 44 % 0 mm 953.0 W/m2 CLR
16:25 -5.2 °C -12.6 °C 34577.8 hPa NNW 44.1 km/h 44.1 km/h 43 % 0 mm 907.0 W/m2 CLR
16:30 -5.3 °C -12.4 °C 34577.8 hPa NNW 56.6 km/h 56.6 km/h 44 % 0 mm 264.0 W/m2 CLR
16:35 -5.2 °C -12.4 °C 34577.8 hPa NW 59.5 km/h 59.5 km/h 44 % 0 mm 823.0 W/m2 CLR
16:40 -5.4 °C -12.6 °C 34577.8 hPa NW 74.5 km/h 74.5 km/h 44 % 0 mm 814.0 W/m2 CLR
16:45 -5.3 °C -12.4 °C 34577.8 hPa NNW 56.6 km/h 56.6 km/h 44 % 0 mm 789.0 W/m2 CLR
16:50 -5.4 °C -12.5 °C 34577.8 hPa NNW 62.6 km/h 62.6 km/h 44 % 0 mm 772.0 W/m2 CLR
16:55 -5.2 °C -12.4 °C 34577.8 hPa North 47.6 km/h 47.6 km/h 44 % 0 mm 789.0 W/m2 CLR
17:00 -5.1 °C -12.4 °C 34567.7 hPa WNW 46.7 km/h 46.7 km/h 43 % 0 mm 745.0 W/m2 CLR
17:05 -5.2 °C -12.5 °C 34577.8 hPa North 65.5 km/h 65.5 km/h 43 % 0 mm 756.0 W/m2 CLR
17:10 -5.3 °C -12.4 °C 34577.8 hPa NW 77.4 km/h 77.4 km/h 44 % 0 mm 752.0 W/m2 CLR
17:15 -5.1 °C -12.3 °C 34577.8 hPa WNW 41.7 km/h 41.7 km/h 44 % 0 mm 731.0 W/m2 CLR
17:20 -5.2 °C -12.5 °C 34567.7 hPa NNW 53.6 km/h 53.6 km/h 43 % 0 mm 745.0 W/m2 CLR
17:25 -5.2 °C -12.6 °C 34577.8 hPa WNW 50.7 km/h 50.7 km/h 43 % 0 mm 770.0 W/m2 CLR
17:30 -5.4 °C -12.7 °C 34577.8 hPa North 59.5 km/h 59.5 km/h 43 % 0 mm 770.0 W/m2 CLR
17:35 -5.4 °C -12.4 °C 34577.8 hPa NW 68.6 km/h 68.6 km/h 45 % 0 mm 766.0 W/m2 CLR
17:40 -5.3 °C -12.4 °C 34567.7 hPa NNW 47.6 km/h 47.6 km/h 44 % 0 mm 735.0 W/m2 CLR
17:45 -5.1 °C -12.6 °C 34577.8 hPa NNW 68.6 km/h 68.6 km/h 42 % 0 mm 135.0 W/m2 CLR
17:50 -5.3 °C -12.4 °C 34567.7 hPa WNW 56.6 km/h 56.6 km/h 44 % 0 mm 652.0 W/m2 CLR
17:55 -5.3 °C -12.4 °C 34577.8 hPa NW 68.6 km/h 68.6 km/h 44 % 0 mm 656.0 W/m2 CLR
18:00 -5.4 °C -12.6 °C 34577.8 hPa North 53.6 km/h 53.6 km/h 44 % 0 mm 446.0 W/m2 CLR
18:05 -5.7 °C -12.6 °C 34577.8 hPa NW 50.7 km/h 50.7 km/h 45 % 0 mm 285.0 W/m2 CLR
18:06 -5.7 °C -12.6 °C 34577.8 hPa NNW 50.7 km/h 50.7 km/h 45 % 0 mm 355.0 W/m2 CLR
18:11 -5.5 °C -12.7 °C 34577.8 hPa NNW 65.5 km/h 65.5 km/h 44 % 0 mm 691.0 W/m2 CLR
18:16 -5.3 °C -12.4 °C 34577.8 hPa NNW 53.6 km/h 53.6 km/h 44 % 0 mm 708.0 W/m2 CLR
18:21 -5.1 °C -12.3 °C 34577.8 hPa WNW 47.6 km/h 47.6 km/h 44 % 0 mm 714.0 W/m2 CLR
18:26 -5.2 °C -12.3 °C 34577.8 hPa WNW 50.7 km/h 50.7 km/h 44 % 0 mm 696.0 W/m2 CLR
18:31 -5 °C -12.4 °C 34577.8 hPa NW 44.7 km/h 44.7 km/h 43 % 0 mm 649.0 W/m2 CLR
18:36 -5.2 °C -12.3 °C 34577.8 hPa NNW 59.5 km/h 59.5 km/h 44 % 0 mm 584.0 W/m2 CLR
18:41 -5.2 °C -12.2 °C 34577.8 hPa NW 50.7 km/h 50.7 km/h 45 % 0 mm 526.0 W/m2 CLR
18:46 -5.3 °C -12.3 °C 34577.8 hPa NW 68.6 km/h 68.6 km/h 45 % 0 mm 520.0 W/m2 CLR
18:51 -5.5 °C -12.4 °C 34591.4 hPa North 53.6 km/h 53.6 km/h 45 % 0 mm 508.0 W/m2 CLR
18:56 -5.6 °C -12.3 °C 34591.4 hPa NNW 59.5 km/h 59.5 km/h 46 % 0 mm 452.0 W/m2 CLR
19:01 -5.5 °C -12.4 °C 34591.4 hPa NW 56.6 km/h 56.6 km/h 45 % 0 mm 448.0 W/m2 CLR
19:06 -5.6 °C -12.6 °C 34591.4 hPa NNW 74.5 km/h 74.5 km/h 45 % 0 mm 425.0 W/m2 CLR
19:11 -5.7 °C -12.6 °C 34591.4 hPa NW 59.5 km/h 59.5 km/h 45 % 0 mm 378.0 W/m2 CLR
19:16 -5.8 °C -12.6 °C 34591.4 hPa NW 68.6 km/h 68.6 km/h 46 % 0 mm 360.0 W/m2 CLR
19:21 -5.9 °C -12.6 °C 34591.4 hPa NW 56.6 km/h 56.6 km/h 46 % 0 mm 257.0 W/m2 CLR
19:26 -5.9 °C -12.6 °C 34601.5 hPa NNW 50.7 km/h 50.7 km/h 46 % 0 mm 332.0 W/m2 CLR
19:31 -5.9 °C -12.4 °C 34591.4 hPa NNW 59.5 km/h 59.5 km/h 47 % 0 mm 309.0 W/m2 CLR
19:36 -5.9 °C -12.5 °C 34601.5 hPa NNW 56.6 km/h 56.6 km/h 47 % 0 mm 292.0 W/m2 CLR
19:41 -6.1 °C -12.6 °C 34601.5 hPa NW 74.5 km/h 74.5 km/h 47 % 0 mm 285.0 W/m2 CLR
19:46 -6.2 °C -12.6 °C 34601.5 hPa NNW 68.6 km/h 68.6 km/h 48 % 0 mm 241.0 W/m2 CLR
19:47 -6.3 °C -12.6 °C 34601.5 hPa NNW 65.5 km/h 65.5 km/h 48 % 0 mm 262.0 W/m2 CLR
19:52 -6.4 °C -12.6 °C 34601.5 hPa NW 50.7 km/h 50.7 km/h 49 % 0 mm 239.0 W/m2 CLR
19:57 -6.3 °C -12.3 °C 34611.7 hPa NW 56.6 km/h 56.6 km/h 50 % 0 mm 213.0 W/m2 CLR
20:02 -6.6 °C -12.3 °C 34611.7 hPa NW 44.7 km/h 44.7 km/h 51 % 0 mm 79.0 W/m2 CLR
20:07 -6.7 °C -12.5 °C 34611.7 hPa ENE 59.5 km/h 59.5 km/h 51 % 0 mm 98.0 W/m2 CLR
20:12 -6.7 °C -12.4 °C 34611.7 hPa NNW 41.4 km/h 41.4 km/h 51 % 0 mm 162.0 W/m2 CLR
20:17 -6.6 °C -12.4 °C 34625.2 hPa NW 47.6 km/h 47.6 km/h 51 % 0 mm 165.0 W/m2 CLR
20:22 -6.7 °C -12.5 °C 34625.2 hPa NW 50.7 km/h 50.7 km/h 51 % 0 mm 158.0 W/m2 CLR
20:27 -6.6 °C -12.4 °C 34625.2 hPa NNW 59.5 km/h 59.5 km/h 51 % 0 mm 142.0 W/m2 CLR
20:32 -6.6 °C -12.4 °C 34625.2 hPa NW 50.7 km/h 50.7 km/h 51 % 0 mm 120.0 W/m2 CLR
20:37 -6.7 °C -12.4 °C 34625.2 hPa WNW 50.7 km/h 50.7 km/h 51 % 0 mm 109.0 W/m2 CLR
20:42 -6.8 °C -12.6 °C 34625.2 hPa WNW 68.6 km/h 68.6 km/h 51 % 0 mm 102.0 W/m2 CLR
20:47 -6.9 °C -12.5 °C 34625.2 hPa WNW 53.6 km/h 53.6 km/h 52 % 0 mm 77.0 W/m2 CLR
20:52 -6.9 °C -12.6 °C 34635.4 hPa NW 62.6 km/h 62.6 km/h 52 % 0 mm 65.0 W/m2 SCT
20:57 -7 °C -12.6 °C 34635.4 hPa NW 62.6 km/h 62.6 km/h 52 % 0 mm 46.0 W/m2 SCT
21:02 -7.1 °C -12.6 °C 34635.4 hPa NNW 50.7 km/h 50.7 km/h 53 % 0 mm 46.0 W/m2 SCT
21:07 -7.2 °C -12.6 °C 34635.4 hPa WNW 50.7 km/h 50.7 km/h 53 % 0 mm 39.0 W/m2 BKN
21:12 -7.3 °C -12.6 °C 34635.4 hPa WNW 53.6 km/h 53.6 km/h 54 % 0 mm 28.0 W/m2 BKN
21:17 -7.3 °C -12.6 °C 34645.6 hPa NW 38.8 km/h 38.8 km/h 54 % 0 mm 23.0 W/m2 BKN
21:22 -7.4 °C -12.6 °C 34645.6 hPa NW 59.5 km/h 59.5 km/h 55 % 0 mm 18.0 W/m2 BKN
21:27 -7.6 °C -12.5 °C 34645.6 hPa WNW 47.6 km/h 47.6 km/h 56 % 0 mm 11.0 W/m2 BKN
21:32 -7.6 °C -12.6 °C 34645.6 hPa NNW 44.7 km/h 44.7 km/h 56 % 0 mm 7.0 W/m2 BKN
21:37 -7.7 °C -12.6 °C 34645.6 hPa NW 33.6 km/h 33.6 km/h 56 % 0 mm 5.0 W/m2 OVC
21:42 -7.7 °C -12.6 °C 34645.6 hPa NW 29.8 km/h 29.8 km/h 57 % 0 mm 0.0 W/m2 OVC
21:47 -7.8 °C -12.6 °C 34659.1 hPa Calm     57 % 0 mm 0.0 W/m2 CLR
21:52 -7.8 °C -12.4 °C 34659.1 hPa NW 50.7 km/h 50.7 km/h 58 % 0 mm 0.0 W/m2 CLR
21:53 -7.8 °C -12.4 °C 34659.1 hPa NNW 50.7 km/h 50.7 km/h 58 % 0 mm 0.0 W/m2 CLR
21:58 -7.9 °C -12.6 °C 34659.1 hPa WNW 29.8 km/h 29.8 km/h 58 % 0 mm 0.0 W/m2 CLR
22:03 -7.9 °C -12.4 °C 34659.1 hPa WNW 41.7 km/h 41.7 km/h 59 % 0 mm 0.0 W/m2 CLR
22:08 -7.9 °C -12.4 °C 34669.3 hPa WNW 50.7 km/h 50.7 km/h 59 % 0 mm 0.0 W/m2 CLR
22:13 -8 °C -12.5 °C 34669.3 hPa West 17.9 km/h 17.9 km/h 59 % 0 mm 0.0 W/m2 CLR
22:18 -8 °C -12.4 °C 34669.3 hPa West 29.8 km/h 29.8 km/h 60 % 0 mm 0.0 W/m2 CLR
22:23 -8.1 °C -12.4 °C 34669.3 hPa West 31.1 km/h 31.1 km/h 60 % 0 mm 0.0 W/m2 CLR
22:28 -8.1 °C -12.4 °C 34669.3 hPa WNW 20.9 km/h 20.9 km/h 60 % 0 mm 0.0 W/m2 CLR
22:33 -8.2 °C -12.5 °C 34669.3 hPa West 31.1 km/h 31.1 km/h 60 % 0 mm 0.0 W/m2 CLR
22:38 -8.2 °C -12.6 °C 34682.8 hPa WNW 32.8 km/h 32.8 km/h 60 % 0 mm 0.0 W/m2 CLR
22:43 -8.2 °C -12.6 °C 34682.8 hPa WNW 20.9 km/h 20.9 km/h 60 % 0 mm 0.0 W/m2 CLR
22:48 -8.2 °C -12.6 °C 34682.8 hPa WNW 44.7 km/h 44.7 km/h 60 % 0 mm 0.0 W/m2 CLR
22:53 -8.3 °C -12.6 °C 34682.8 hPa NNW 38.8 km/h 38.8 km/h 60 % 0 mm 0.0 W/m2 CLR
22:58 -8.3 °C -12.7 °C 34682.8 hPa NW 29.8 km/h 29.8 km/h 60 % 0 mm 0.0 W/m2 CLR
23:03 -8.3 °C -12.7 °C 34682.8 hPa WNW 26.9 km/h 26.9 km/h 60 % 0 mm 0.0 W/m2 CLR
23:08 -8.3 °C -12.7 °C 34693 hPa West 35.7 km/h 35.7 km/h 60 % 0 mm 0.0 W/m2 CLR
23:13 -8.4 °C -12.7 °C 34693 hPa NW 50.7 km/h 50.7 km/h 60 % 0 mm 0.0 W/m2 CLR
23:18 -8.4 °C -12.7 °C 34693 hPa West 29.8 km/h 29.8 km/h 60 % 0 mm 0.0 W/m2 CLR
23:23 -8.4 °C -12.6 °C 34693 hPa NW 41.7 km/h 41.7 km/h 61 % 0 mm 0.0 W/m2 CLR
23:28 -8.5 °C -12.7 °C 34693 hPa WNW 20.9 km/h 20.9 km/h 61 % 0 mm 0.0 W/m2 CLR
23:33 -8.5 °C -12.6 °C 34693 hPa WNW 29.8 km/h 29.8 km/h 62 % 0 mm 0.0 W/m2 CLR
23:38 -8.6 °C -12.4 °C 34703.1 hPa West 35.7 km/h 35.7 km/h 63 % 0 mm 0.0 W/m2 CLR
23:43 -8.6 °C -12.7 °C 34703.1 hPa West 41.7 km/h 41.7 km/h 62 % 0 mm 0.0 W/m2 CLR
23:48 -8.7 °C -12.7 °C 34703.1 hPa WNW 32.8 km/h 32.8 km/h 62 % 0 mm 0.0 W/m2 CLR
23:53 -8.7 °C -12.7 °C 34703.1 hPa WNW 29.8 km/h 29.8 km/h 62 % 0 mm 0.0 W/m2 CLR
23:58 -8.8 °C -12.7 °C 34703.1 hPa West 9 km/h 9 km/h 63 % 0 mm 0.0 W/m2 CLR
Lo Temps de Massalio
Compliments of Weather Underground - 1.25 mb